Poplar, Minnesota
Current Conditions -  °F | °C
As of 8:53 PM on Friday 21 Nov 2014 (Local Time) from KSAZ Reporting Station
Clear Clear  
Wind Chill: 17°   Ceiling: Unl
Heat Index: 28°   Visibility: 10mi
Dew Point: 25°   Wind: 14mph
Humidity: 86%   Direction: 180°S
Pressure: 29.74"   Gusts: 21mph
Location:  46.4416°N, 94.6389°W
Report Text: KSAZ 220253Z AUTO 18012G18KT 10SM CLR M02/M04 A2974 RMK AO2
Loading
Personal Weather Stations






























Interactive Weather Map New forecast layout! Learn more

10-Day Weather Forecast

Advertisements
Track Severe Weather on mobile